Maple Hill, Iowa
Current Conditions -  °F | °C
As of 11:52 PM on Saturday 22 Nov 2014 (Local Time) from KEST Reporting Station
Haze Haze  
Wind Chill: 50°   Ceiling: 1300
Heat Index: 50°   Visibility: 5mi
Dew Point: 48°   Wind: 20mph
Humidity: 93%   Direction: 200°SSW
Pressure: 29.5"   Gusts: NA
Location:  43.4207°N, 94.5018°W
Report Text: KEST 230552Z AUTO 20017KT 5SM BR BKN013 10/09 A2950 RMK AO2 SLP995 T01000089 10100 20022 401000006 58010
Loading
Personal Weather Stations






























Interactive Weather Map New forecast layout! Learn more

10-Day Weather Forecast

Advertisements
Track Severe Weather on mobile